Worthington, WV (26591)

2:16 PM EST on February 09, 2016 (GMT -0500)
Oak Wood Heights | | Change Station
CLOSE
Current Station
Personal Weather Station
Location: Shinnston, WV
Elevation: 1050 ft
Nearby Weather Stations

Elev 1050 ft 39.38 °N, 80.30 °W | Updated 4 minutes ago

Overcast
Overcast
26.6 °F
Feels Like 27 °F
N
0.0
Wind Variable Wind from West

Today
High -- | Low -- °F
--% Chance of Precip.
Yesterday
High -- | Low -- °F
Precip. -- in
Pressure 29.66 in
Visibility 10.0 miles
Clouds Mostly Cloudy 1700 ft
Overcast 2300 ft
Windchill 27 °F
Dew Point 24 °F
Humidity 89%
Rainfall 0.00 in
Snow Depth Not available.
7:20 AM 5:50 PM
New Moon, 2% visible
METAR KCKB 091853Z 24009KT 10SM -SN BKN017 OVC023 M04/M07 A2964 RMK AO2 SNE30B53 SLP043 P0000 T10391072
Pressure 29.66 in
Visibility 10.0 miles
Clouds Mostly Cloudy 1700 ft
Overcast 2300 ft
Windchill 27 °F
Dew Point 24 °F
Humidity 89%
Rainfall 0.00 in
Snow Depth Not available.
7:20 AM 5:50 PM
New Moon, 2% visible
METAR KCKB 091853Z 24009KT 10SM -SN BKN017 OVC023 M04/M07 A2964 RMK AO2 SNE30B53 SLP043 P0000 T10391072

10-Day Weather Forecast

Almanac

Astronomy

Feb. 09, 2016 Rise Set
Actual Time
Civil Twilight
Nautical Twilight
Astronomical Twilight
Moon
Length of Visible Light
Length of Day
Tomorrow will be .
, % of the Moon is Illuminated

Today's Extremes

State Highs State Lows

Community

WunderPhotos

Upload Photos

1,891,666 photos uploaded!

WunderBlog® & News

Nearby

Air Quality

  Air Quality AQ Index Pollutant
Not available.

Snow Depth

Station Depth Elevation

Earthquake Activity

City Distance Mag. Time & Date
Minimum magnitude displayed is 2.5.

Coastal Water Temperatures

Place Temperature

Stations

Nearby Weather Stations

Station Location Temp. Windchill Dew Point Humidity Wind Precip. Elev Updated Type
                   

Watches & Warnings

Winter Weather Advisory
Issued: 9:42 AM EST Feb. 9, 2016 – National Weather Service

... Winter Weather Advisory remains in effect until 7 am EST
Wednesday...

* snow accumulation... 3 to 5 inches.

* Period of most intense snow... through late afternoon.

* Snow ending... snow showers will diminish this evening.

* Impacts... hazardous travel conditions are expected due to snow.

Precautionary/preparedness actions...

A Winter Weather Advisory for snow means that periods of snow
will cause primarily travel difficulties. Be prepared for snow
covered roads and limited visibilities... and use caution while
driving.